Time;durP1;ratioP1;P1;durP2;ratioP2;P2;SDS_P1;SDS_P2;PMS_P1;PMS_P2;Temp;Humidity;BMP_temperature;BMP_pressure;BME280_temperature;BME280_humidity;BME280_pressure;Samples;Min_cycle;Max_cycle;Signal;HPM_P1;HPM_P2
2022/06/30 00:02:18;;;;;;;;;2.00;1.00;;;;;20.59;100.00;100784.81;4967457;28;47572;-81
2022/06/30 00:04:44;;;;;;;;;1.00;1.00;;;;;20.49;100.00;100781.19;4966643;28;45412;-80
2022/06/30 00:07:09;;;;;;;;;0.00;0.00;;;;;20.38;100.00;100775.56;4966786;28;45286;-80
2022/06/30 00:09:34;;;;;;;;;0.00;0.00;;;;;20.27;100.00;100776.66;4959969;28;45781;-80
2022/06/30 00:12:00;;;;;;;;;0.33;0.33;;;;;20.17;100.00;100777.44;4973616;28;45352;-80
2022/06/30 00:14:25;;;;;;;;;3.00;3.00;;;;;20.07;100.00;100785.75;4946412;28;45362;-80
2022/06/30 00:16:51;;;;;;;;;2.00;1.00;;;;;19.95;100.00;100782.38;4947244;28;45375;-79
2022/06/30 00:19:16;;;;;;;;;3.00;2.00;;;;;19.80;100.00;100774.78;4945763;28;45918;-80
2022/06/30 00:21:42;;;;;;;;;0.00;0.00;;;;;19.83;100.00;100805.69;4964640;28;45441;-79
2022/06/30 00:24:07;;;;;;;;;0.00;0.00;;;;;19.73;100.00;100802.81;4946405;28;45888;-80
2022/06/30 00:26:33;;;;;;;;;0.00;0.00;;;;;19.67;100.00;100793.59;4980059;28;45453;-79
2022/06/30 00:29:02;;;;;;;;;4.00;3.00;;;;;19.59;100.00;100796.88;4965123;28;45313;-80
2022/06/30 00:31:27;;;;;;;;;1.00;1.00;;;;;19.45;100.00;100788.16;4979701;28;46342;-80
2022/06/30 00:33:53;;;;;;;;;2.00;0.00;;;;;19.44;100.00;100791.22;4946203;28;45387;-79
2022/06/30 00:36:19;;;;;;;;;1.00;1.00;;;;;19.39;100.00;100794.81;4953278;28;45734;-80
2022/06/30 00:38:46;;;;;;;;;1.00;1.00;;;;;19.32;100.00;100802.53;4984110;28;45381;-79
2022/06/30 00:41:11;;;;;;;;;0.67;0.67;;;;;19.23;100.00;100804.97;4969008;28;46890;-80
2022/06/30 00:43:46;;;;;;;;;2.00;2.00;;;;;19.05;100.00;100793.13;4946549;28;45514;-81
2022/06/30 00:46:13;;;;;;;;;2.00;2.00;;;;;19.18;100.00;100804.94;4960890;28;45546;-80
2022/06/30 00:48:40;;;;;;;;;2.00;1.00;;;;;19.13;100.00;100814.06;4963697;28;45387;-80
2022/06/30 00:51:06;;;;;;;;;7.67;5.33;;;;;19.10;100.00;100813.75;4951558;28;45489;-80
2022/06/30 00:53:40;;;;;;;;;1.00;1.00;;;;;19.06;100.00;100813.44;4963669;28;45809;-81
2022/06/30 00:56:10;;;;;;;;;0.00;0.00;;;;;18.91;100.00;100810.50;4963606;28;45762;-79
2022/06/30 00:58:41;;;;;;;;;4.00;4.00;;;;;18.95;100.00;100811.66;4981907;28;45380;-81
2022/06/30 01:01:26;;;;;;;;;3.00;3.00;;;;;18.85;100.00;100801.28;4965599;28;45095;-79
2022/06/30 01:03:58;;;;;;;;;5.00;2.67;;;;;18.86;100.00;100803.81;4970989;28;45336;-80
2022/06/30 01:06:24;;;;;;;;;3.00;2.00;;;;;18.77;100.00;100794.25;4979111;28;45402;-80
2022/06/30 01:08:50;;;;;;;;;1.00;1.00;;;;;18.73;100.00;100801.44;4947007;28;45586;-80
2022/06/30 01:14:01;;;;;;;;;2.00;1.67;;;;;18.74;100.00;100811.41;4963129;28;45455;-80
2022/06/30 01:16:28;;;;;;;;;4.00;3.00;;;;;18.64;100.00;100792.72;4959043;28;45364;-80
2022/06/30 01:18:53;;;;;;;;;3.67;2.00;;;;;18.72;100.00;100796.97;4938566;28;45507;-81
2022/06/30 01:21:19;;;;;;;;;1.67;1.67;;;;;18.67;100.00;100799.69;4933219;28;45639;-79
2022/06/30 01:23:45;;;;;;;;;2.00;2.00;;;;;18.67;100.00;100810.81;4966073;28;45441;-80
2022/06/30 01:26:10;;;;;;;;;2.67;2.67;;;;;18.55;100.00;100793.44;4961903;28;45405;-80
2022/06/30 01:28:36;;;;;;;;;2.00;2.00;;;;;18.51;100.00;100802.28;4964288;28;45385;-81
2022/06/30 01:31:02;;;;;;;;;1.00;1.00;;;;;18.57;100.00;100805.13;4960007;28;46265;-77
2022/06/30 01:33:35;;;;;;;;;3.00;1.00;;;;;18.55;100.00;100812.88;4959326;28;45498;-82
2022/06/30 01:36:01;;;;;;;;;2.67;2.00;;;;;18.50;100.00;100805.34;4963242;28;45662;-81
2022/06/30 01:38:27;;;;;;;;;3.00;3.00;;;;;18.40;100.00;100794.09;4955938;28;45498;-79
2022/06/30 01:40:53;;;;;;;;;1.00;1.00;;;;;18.39;100.00;100803.56;4945759;28;47051;-79
2022/06/30 01:43:20;;;;;;;;;8.00;3.67;;;;;18.33;100.00;100786.00;4942444;28;45569;-81
2022/06/30 01:45:46;;;;;;;;;3.67;2.33;;;;;18.41;100.00;100802.16;4962943;28;45097;-80
2022/06/30 01:48:11;;;;;;;;;2.67;2.67;;;;;18.40;100.00;100814.41;4964788;28;45542;-79
2022/06/30 01:50:37;;;;;;;;;4.00;2.00;;;;;18.34;100.00;100807.13;4972577;28;45471;-80
2022/06/30 01:53:03;;;;;;;;;0.67;0.67;;;;;18.33;100.00;100805.44;4960050;28;45477;-81
2022/06/30 01:55:29;;;;;;;;;1.33;1.00;;;;;18.36;100.00;100824.34;4964784;28;44788;-80
2022/06/30 01:57:55;;;;;;;;;3.00;2.67;;;;;18.28;100.00;100822.03;4956859;28;45370;-81
2022/06/30 02:00:26;;;;;;;;;4.00;4.00;;;;;18.30;100.00;100831.75;4966269;28;47165;-79
2022/06/30 02:02:55;;;;;;;;;2.00;2.00;;;;;18.33;100.00;100841.53;4969431;28;45447;-80
2022/06/30 02:05:22;;;;;;;;;2.67;2.67;;;;;18.31;100.00;100835.41;4960921;28;45517;-81
2022/06/30 02:07:48;;;;;;;;;1.00;1.00;;;;;18.31;100.00;100836.22;4959894;28;45532;-81
2022/06/30 02:10:17;;;;;;;;;0.33;0.00;;;;;18.35;100.00;100836.53;4963381;28;46511;-80
2022/06/30 02:12:46;;;;;;;;;2.00;1.00;;;;;18.18;100.00;100804.13;4963493;28;45643;-80
2022/06/30 02:15:21;;;;;;;;;1.00;1.00;;;;;18.23;100.00;100803.34;4950560;28;45794;-80
2022/06/30 02:17:51;;;;;;;;;1.00;1.00;;;;;18.40;100.00;100822.72;4963509;28;45421;-79
2022/06/30 02:20:21;;;;;;;;;1.33;1.33;;;;;18.43;100.00;100810.25;4955898;28;46371;-79
2022/06/30 02:22:47;;;;;;;;;1.33;1.33;;;;;18.41;100.00;100796.63;4982453;28;45420;-78
2022/06/30 02:25:16;;;;;;;;;2.00;2.00;;;;;18.49;100.00;100801.72;4945029;28;45457;-78
2022/06/30 02:27:43;;;;;;;;;2.33;1.00;;;;;18.50;100.00;100795.06;4975339;28;45473;-78
2022/06/30 02:30:10;;;;;;;;;3.00;3.00;;;;;18.50;100.00;100792.31;4935200;28;46999;-79
2022/06/30 02:32:35;;;;;;;;;2.67;2.67;;;;;18.46;100.00;100782.81;4955780;28;45334;-80
2022/06/30 02:35:02;;;;;;;;;2.00;2.00;;;;;18.46;100.00;100788.38;4959084;28;45451;-79
2022/06/30 02:37:28;;;;;;;;;2.00;2.00;;;;;18.51;100.00;100799.50;4945513;28;46174;-80
2022/06/30 02:39:53;;;;;;;;;1.00;1.00;;;;;18.56;100.00;100798.72;4963439;28;46599;-79
2022/06/30 02:42:19;;;;;;;;;1.00;1.00;;;;;18.58;100.00;100795.69;4956044;28;45791;-78
2022/06/30 02:44:45;;;;;;;;;1.00;1.00;;;;;18.43;100.00;100783.34;4959823;28;45456;-80
2022/06/30 02:47:10;;;;;;;;;5.33;1.33;;;;;18.50;100.00;100806.19;4964052;28;45744;-80
2022/06/30 02:49:38;;;;;;;;;6.67;0.67;;;;;18.51;100.00;100802.28;4954375;28;47363;-79
2022/06/30 02:52:04;;;;;;;;;1.33;1.33;;;;;18.42;100.00;100789.16;4967005;28;45373;-78
2022/06/30 02:54:29;;;;;;;;;2.00;1.00;;;;;18.49;100.00;100809.22;4966004;28;44853;-80
2022/06/30 02:56:56;;;;;;;;;4.67;2.00;;;;;18.49;100.00;100804.50;4966353;28;45565;-80
2022/06/30 02:59:21;;;;;;;;;1.33;1.00;;;;;18.48;100.00;100813.91;4949238;28;46315;-76
2022/06/30 03:01:47;;;;;;;;;3.33;1.67;;;;;18.39;100.00;100806.34;4967973;28;45474;-79
2022/06/30 03:04:12;;;;;;;;;2.00;2.00;;;;;18.51;100.00;100830.06;4966982;28;45420;-79
2022/06/30 03:06:38;;;;;;;;;2.00;2.00;;;;;18.52;100.00;100814.25;4965967;28;45415;-80
2022/06/30 03:09:03;;;;;;;;;4.00;2.00;;;;;18.49;100.00;100812.84;4950213;28;45618;-79
2022/06/30 03:11:29;;;;;;;;;1.00;1.00;;;;;18.45;100.00;100820.00;4965401;28;45411;-79
2022/06/30 03:13:55;;;;;;;;;3.00;2.00;;;;;18.48;100.00;100826.97;4968066;28;45481;-80
2022/06/30 03:16:21;;;;;;;;;0.00;0.00;;;;;18.48;100.00;100827.81;4963320;28;45418;-80
2022/06/30 03:18:46;;;;;;;;;4.00;2.33;;;;;18.49;100.00;100826.72;4957109;28;47459;-79
2022/06/30 03:21:15;;;;;;;;;3.00;1.00;;;;;18.50;100.00;100817.28;4964499;28;45421;-81
2022/06/30 03:23:40;;;;;;;;;1.33;1.33;;;;;18.50;100.00;100820.06;4957738;28;44787;-81
2022/06/30 03:26:06;;;;;;;;;1.33;1.33;;;;;18.50;100.00;100838.66;4960844;28;45482;-79
2022/06/30 03:28:38;;;;;;;;;2.00;2.00;;;;;18.50;100.00;100828.41;4967298;28;46346;-82
2022/06/30 03:31:07;;;;;;;;;1.00;1.00;;;;;18.38;100.00;100813.81;4966436;28;45722;-80
2022/06/30 03:33:33;;;;;;;;;1.33;0.33;;;;;18.40;100.00;100810.75;4964521;28;45325;-78
2022/06/30 03:35:59;;;;;;;;;1.33;1.33;;;;;18.45;100.00;100803.34;4964668;28;45417;-80
2022/06/30 03:38:24;;;;;;;;;2.00;2.00;;;;;18.35;100.00;100781.00;4967506;28;46828;-80
2022/06/30 03:40:53;;;;;;;;;3.00;3.00;;;;;18.58;100.00;100809.56;4964920;28;45728;-79
2022/06/30 03:43:21;;;;;;;;;2.00;1.00;;;;;18.51;100.00;100791.19;4949598;28;45642;-80
2022/06/30 03:45:47;;;;;;;;;3.67;3.67;;;;;18.48;100.00;100800.03;4948355;28;45515;-82
2022/06/30 03:48:12;;;;;;;;;2.00;2.00;;;;;18.45;100.00;100810.84;4957948;28;46356;-80
2022/06/30 03:50:38;;;;;;;;;1.67;1.67;;;;;18.34;100.00;100807.13;4964648;28;45480;-81
2022/06/30 03:53:04;;;;;;;;;3.33;3.33;;;;;18.53;100.00;100836.22;4952308;28;45355;-82
2022/06/30 03:55:29;;;;;;;;;2.00;2.00;;;;;18.21;100.00;100779.75;4966316;28;45787;-80
2022/06/30 03:57:55;;;;;;;;;1.00;1.00;;;;;18.58;100.00;100834.56;4965475;28;46309;-80
2022/06/30 04:00:21;;;;;;;;;1.67;1.67;;;;;18.59;100.00;100848.19;4979502;28;45411;-80
2022/06/30 04:02:46;;;;;;;;;8.33;2.00;;;;;18.39;100.00;100821.03;4965452;28;45347;-81
2022/06/30 04:05:12;;;;;;;;;0.00;0.00;;;;;18.59;100.00;100852.94;4966273;28;45393;-81
2022/06/30 04:07:42;;;;;;;;;3.33;2.33;;;;;18.42;100.00;100826.06;4966416;28;45579;-80
2022/06/30 04:10:09;;;;;;;;;1.67;1.00;;;;;18.48;100.00;100838.91;4964207;28;45573;-80
2022/06/30 04:12:35;;;;;;;;;1.33;1.00;;;;;18.58;100.00;100851.25;4966187;28;45449;-79
2022/06/30 04:15:01;;;;;;;;;3.00;2.00;;;;;18.59;100.00;100850.16;4961017;28;46082;-79
2022/06/30 04:17:26;;;;;;;;;1.00;1.00;;;;;18.35;100.00;100811.53;4969312;28;45474;-81
2022/06/30 04:19:51;;;;;;;;;3.00;2.00;;;;;18.59;100.00;100855.72;4954451;28;45398;-79
2022/06/30 04:22:17;;;;;;;;;2.00;2.00;;;;;18.58;100.00;100840.13;4962587;28;45558;-80
2022/06/30 04:24:42;;;;;;;;;1.33;1.33;;;;;18.58;100.00;100834.56;4967713;28;46031;-81
2022/06/30 04:27:08;;;;;;;;;5.00;4.67;;;;;18.55;100.00;100826.75;4964965;28;45498;-80
2022/06/30 04:29:33;;;;;;;;;1.00;1.00;;;;;18.36;100.00;100802.13;4960716;28;45870;-80
2022/06/30 04:34:43;;;;;;;;;4.00;4.00;;;;;18.53;100.00;100841.78;4963997;28;45392;-79
2022/06/30 04:37:09;;;;;;;;;4.67;3.00;;;;;18.48;100.00;100836.13;4962073;28;45436;-79
2022/06/30 04:39:34;;;;;;;;;4.00;4.00;;;;;18.39;100.00;100837.69;4966323;28;45499;-80
2022/06/30 04:42:00;;;;;;;;;9.33;7.00;;;;;18.32;100.00;100837.91;4950630;28;45460;-82
2022/06/30 04:44:25;;;;;;;;;3.33;3.33;;;;;18.40;100.00;100860.75;4964463;28;45412;-78
2022/06/30 04:46:51;;;;;;;;;2.33;2.00;;;;;18.39;100.00;100859.91;4941426;28;47044;-80
2022/06/30 04:49:19;;;;;;;;;3.00;3.00;;;;;18.16;100.00;100828.53;4963322;28;45349;-79
2022/06/30 04:51:48;;;;;;;;;3.00;2.00;;;;;18.39;100.00;100853.53;4964910;28;45460;-80
2022/06/30 04:54:14;;;;;;;;;3.00;3.00;;;;;18.40;100.00;100842.16;4961205;28;45526;-79
2022/06/30 04:56:43;;;;;;;;;6.33;5.00;;;;;18.47;100.00;100855.84;4961548;28;45210;-79
2022/06/30 04:59:09;;;;;;;;;8.00;6.00;;;;;18.44;100.00;100840.56;4961257;28;45245;-81
2022/06/30 05:01:38;;;;;;;;;4.67;3.00;;;;;18.52;100.00;100848.41;4963492;28;45374;-79
2022/06/30 05:04:06;;;;;;;;;5.00;4.00;;;;;18.56;100.00;100854.28;4964541;28;45396;-80
2022/06/30 05:06:34;;;;;;;;;5.00;5.00;;;;;18.56;100.00;100845.94;4958615;28;46272;-82
2022/06/30 05:09:00;;;;;;;;;3.67;2.67;;;;;18.59;100.00;100825.97;4941887;28;45462;-80
2022/06/30 05:11:27;;;;;;;;;4.67;4.00;;;;;18.62;100.00;100832.97;4959284;28;45649;-79
2022/06/30 05:13:56;;;;;;;;;2.33;2.33;;;;;18.63;100.00;100835.47;4962542;28;45559;-78
2022/06/30 05:16:21;;;;;;;;;3.00;3.00;;;;;18.63;100.00;100826.31;4944951;28;47690;-80
2022/06/30 05:18:47;;;;;;;;;2.67;2.67;;;;;18.64;100.00;100820.50;4963720;28;45432;-79
2022/06/30 05:21:14;;;;;;;;;2.33;2.33;;;;;18.65;100.00;100821.31;4963464;28;45421;-83
2022/06/30 05:26:28;;;;;;;;;7.67;4.67;;;;;18.67;100.00;100821.94;4961977;28;45401;-79
2022/06/30 05:26:30;;;;;;;;;2.67;1.33;;;;;18.66;100.00;100814.69;4958033;28;45350;-81
2022/06/30 05:28:55;;;;;;;;;3.00;3.00;;;;;18.55;100.00;100796.22;4945142;28;45362;-79
2022/06/30 05:31:24;;;;;;;;;2.67;2.67;;;;;18.70;100.00;100832.50;4966427;28;45515;-77
2022/06/30 05:33:49;;;;;;;;;3.00;3.00;;;;;18.61;100.00;100825.75;4966666;28;45410;-81
2022/06/30 05:36:15;;;;;;;;;6.33;3.00;;;;;18.55;100.00;100816.50;4946850;28;45685;-80
2022/06/30 05:38:40;;;;;;;;;2.00;2.00;;;;;18.69;100.00;100851.09;4963615;28;45357;-78
2022/06/30 05:41:05;;;;;;;;;3.00;3.00;;;;;18.70;100.00;100840.84;4963443;28;45408;-79
2022/06/30 05:43:32;;;;;;;;;3.00;3.00;;;;;18.69;100.00;100839.16;4958619;28;47121;-82
2022/06/30 05:45:57;;;;;;;;;2.00;2.00;;;;;18.67;100.00;100833.03;4959105;28;46480;-80
2022/06/30 05:48:23;;;;;;;;;3.00;2.00;;;;;18.62;100.00;100832.97;4960583;28;45487;-82
2022/06/30 05:50:51;;;;;;;;;2.67;2.00;;;;;18.79;100.00;100857.91;4960113;28;45365;-83
2022/06/30 05:53:17;;;;;;;;;3.00;1.67;;;;;18.81;100.00;100853.72;4957536;28;45430;-81
2022/06/30 05:55:42;;;;;;;;;2.00;2.00;;;;;18.82;100.00;100849.84;4963639;28;45657;-80
2022/06/30 05:58:14;;;;;;;;;3.00;2.00;;;;;18.84;100.00;100860.72;4961661;28;45576;-82
2022/06/30 06:00:40;;;;;;;;;1.67;1.67;;;;;18.72;100.00;100833.06;5191568;22;46371;-81
2022/06/30 06:03:39;;;;;;;;;4.00;4.00;;;;;18.73;100.00;100842.25;5044811;28;46067;-80
2022/06/30 06:10:07;;;;;;;;;3.67;3.00;;;;;18.68;100.00;100856.91;4943346;28;45967;-81
2022/06/30 06:12:33;;;;;;;;;1.33;1.33;;;;;18.28;100.00;100789.53;4989296;28;45766;-80
2022/06/30 06:15:01;;;;;;;;;3.00;1.33;;;;;18.64;100.00;100839.13;5037854;28;45642;-79
2022/06/30 06:17:29;;;;;;;;;2.67;1.00;;;;;18.70;100.00;100838.06;5044840;28;46693;-79
2022/06/30 06:25:57;;;;;;;;;3.33;3.33;;;;;18.88;100.00;100834.94;5040218;28;45887;-80
2022/06/30 06:31:13;;;;;;;;;6.33;4.33;;;;;19.23;100.00;100855.84;5047048;28;45756;-76
2022/06/30 06:33:43;;;;;;;;;7.67;7.33;;;;;19.24;100.00;100842.78;5047430;28;46057;-77
2022/06/30 06:36:12;;;;;;;;;5.33;2.00;;;;;19.37;100.00;100852.63;5041833;28;45842;-79
2022/06/30 06:38:38;;;;;;;;;4.00;3.00;;;;;19.35;100.00;100838.16;5034963;28;47052;-80
2022/06/30 06:41:07;;;;;;;;;1.67;1.67;;;;;19.40;100.00;100835.41;5045989;28;45790;-79
2022/06/30 06:43:33;;;;;;;;;3.00;3.00;;;;;19.46;100.00;100834.34;5046878;28;45676;-78
2022/06/30 06:45:59;;;;;;;;;3.67;3.67;;;;;19.69;100.00;100862.91;5028447;28;46192;-76
2022/06/30 06:48:27;;;;;;;;;2.33;2.33;;;;;19.72;100.00;100854.00;5030911;28;47232;-78
2022/06/30 06:50:54;;;;;;;;;3.33;3.33;;;;;19.67;100.00;100840.03;5048315;28;45869;-79
2022/06/30 06:53:20;;;;;;;;;2.00;2.00;;;;;19.63;100.00;100844.50;5033494;28;45954;-78
2022/06/30 06:55:47;;;;;;;;;2.67;2.67;;;;;19.85;100.00;100880.56;5050745;28;46831;-81
2022/06/30 06:58:13;;;;;;;;;3.67;2.00;;;;;19.82;100.00;100873.59;5037002;28;45779;-80
2022/06/30 07:00:40;;;;;;;;;2.67;2.67;;;;;19.71;100.00;100857.91;5045369;28;45556;-81
2022/06/30 07:03:06;;;;;;;;;5.00;2.33;;;;;19.63;100.00;100844.50;5034168;28;45471;-79
2022/06/30 07:05:32;;;;;;;;;4.33;3.33;;;;;19.75;100.00;100872.97;5051689;28;46573;-80
2022/06/30 07:07:59;;;;;;;;;2.67;1.67;;;;;19.93;100.00;100894.81;5056221;28;45910;-80
2022/06/30 07:10:26;;;;;;;;;2.67;2.67;;;;;20.03;100.00;100905.19;5049394;28;45509;-75
2022/06/30 07:12:55;;;;;;;;;3.00;3.00;;;;;20.04;100.00;100900.44;5050326;28;46052;-77
2022/06/30 07:15:23;;;;;;;;;4.00;2.00;;;;;20.14;100.00;100910.81;5021726;28;46759;-78
2022/06/30 07:17:49;;;;;;;;;4.33;4.00;;;;;20.00;100.00;100889.03;5053612;28;46330;-78
2022/06/30 07:20:15;;;;;;;;;2.33;2.33;;;;;20.16;100.00;100912.22;5046429;28;45533;-77
2022/06/30 07:22:40;;;;;;;;;3.67;3.00;;;;;20.12;100.00;100908.31;5052314;28;45731;-78
2022/06/30 07:25:10;;;;;;;;;3.00;3.00;;;;;20.04;100.00;100892.09;5048359;28;45743;-80
2022/06/30 07:28:24;;;;;;;;;2.67;1.67;;;;;20.15;100.00;100905.00;5031732;28;47126;-80
2022/06/30 07:31:07;;;;;;;;;3.00;3.00;;;;;20.19;100.00;100905.28;5043680;28;45423;-80
2022/06/30 07:33:35;;;;;;;;;2.00;2.00;;;;;19.64;100.00;100812.75;5049952;28;45437;-80
2022/06/30 07:36:01;;;;;;;;;5.00;3.00;;;;;20.18;100.00;100912.81;5042277;28;45918;-81
2022/06/30 07:38:30;;;;;;;;;2.00;2.00;;;;;20.04;100.00;100886.53;5037512;28;47737;-81
2022/06/30 07:41:01;;;;;;;;;3.00;2.00;;;;;20.21;100.00;100920.63;5042060;28;45503;-81
2022/06/30 07:43:30;;;;;;;;;3.00;3.00;;;;;20.22;100.00;100919.50;5050774;28;45723;-80
2022/06/30 07:45:56;;;;;;;;;4.00;3.00;;;;;20.06;100.00;100870.38;5047212;28;45331;-81
2022/06/30 07:48:24;;;;;;;;;2.33;2.00;;;;;20.24;100.00;100892.22;5047789;28;45422;-81
2022/06/30 07:50:50;;;;;;;;;2.67;2.67;;;;;20.16;100.00;100876.00;5024901;28;45788;-80
2022/06/30 07:53:16;;;;;;;;;2.33;2.33;;;;;20.34;100.00;100898.94;5046513;28;45867;-79
2022/06/30 07:55:45;;;;;;;;;1.33;1.33;;;;;20.40;100.00;100898.69;5034179;28;46122;-80
2022/06/30 07:58:35;;;;;;;;;1.00;1.00;;;;;20.33;100.00;100888.91;5038349;28;45919;-85
2022/06/30 08:01:03;;;;;;;;;3.00;3.00;;;;;20.27;100.00;100885.28;5053384;28;45493;-80
2022/06/30 08:03:44;;;;;;;;;;;;;;;;;;;;;
2022/06/30 08:06:35;;;;;;;;;3.00;3.00;;;;;20.40;100.00;100914.56;5047801;28;74317;-80
2022/06/30 08:09:05;;;;;;;;;2.00;2.00;;;;;20.26;100.00;100886.38;5052045;28;45866;-79
2022/06/30 08:11:39;;;;;;;;;2.00;2.00;;;;;20.29;100.00;100896.97;5048980;28;45283;-79
2022/06/30 08:14:05;;;;;;;;;4.00;4.00;;;;;20.13;100.00;100870.97;5043243;28;45913;-79
2022/06/30 08:16:50;;;;;;;;;4.33;2.00;;;;;20.17;100.00;100882.44;5057529;28;45300;-79
2022/06/30 08:19:25;;;;;;;;;2.67;2.67;;;;;20.07;100.00;100878.47;5039554;28;46655;-78
2022/06/30 08:21:51;;;;;;;;;4.00;1.33;;;;;20.11;100.00;100887.97;5031223;28;45525;-81
2022/06/30 08:24:29;;;;;;;;;3.00;3.00;;;;;20.03;100.00;100887.63;5048033;28;45585;-78
2022/06/30 08:26:58;;;;;;;;;2.33;2.33;;;;;19.98;100.00;100884.81;5053947;28;45795;-78
2022/06/30 08:29:24;;;;;;;;;4.33;3.00;;;;;19.96;100.00;100898.19;5033362;28;47632;-77
2022/06/30 08:31:49;;;;;;;;;2.67;2.67;;;;;19.94;100.00;100890.09;5032532;28;45337;-79
2022/06/30 08:34:20;;;;;;;;;2.00;2.00;;;;;19.90;100.00;100884.22;5037140;28;45578;-79
2022/06/30 08:36:57;;;;;;;;;1.00;1.00;;;;;19.91;100.00;100885.03;5049412;28;45501;-81
2022/06/30 08:42:13;;;;;;;;;1.00;1.00;;;;;19.94;100.00;100884.53;5043880;28;45836;-77
2022/06/30 08:44:43;;;;;;;;;2.00;2.00;;;;;19.99;100.00;100886.50;5045967;28;45537;-78
2022/06/30 08:47:11;;;;;;;;;3.00;3.00;;;;;20.04;100.00;100889.31;5030328;28;47335;-79
2022/06/30 08:49:44;;;;;;;;;2.33;1.00;;;;;20.06;100.00;100881.53;5030011;28;45703;-78
2022/06/30 08:52:13;;;;;;;;;1.00;1.00;;;;;20.07;100.00;100866.50;5056609;28;45856;-78
2022/06/30 08:54:43;;;;;;;;;2.00;2.00;;;;;20.18;100.00;100867.38;5037900;28;45423;-78
2022/06/30 08:57:31;;;;;;;;;1.00;1.00;;;;;20.23;100.00;100870.22;5031905;28;45954;-77
2022/06/30 09:00:00;;;;;;;;;2.00;2.00;;;;;20.16;100.00;100841.78;5036235;28;46344;-80
2022/06/30 09:02:29;;;;;;;;;6.00;1.67;;;;;20.37;100.00;100859.41;5054960;28;45954;-77
2022/06/30 09:05:05;;;;;;;;;6.00;4.00;;;;;20.34;100.00;100859.97;5049641;28;45469;-79
2022/06/30 09:07:44;;;;;;;;;2.00;2.00;;;;;20.31;100.00;100843.78;5051010;28;46402;-79
2022/06/30 09:10:24;;;;;;;;;5.00;3.00;;;;;20.13;100.00;100825.59;5051507;28;46500;-78
2022/06/30 09:13:05;;;;;;;;;2.00;2.00;;;;;20.11;100.00;100828.66;5050288;28;46013;-78
2022/06/30 09:15:40;;;;;;;;;1.00;1.00;;;;;20.05;100.00;100830.56;5053166;28;45517;-82
2022/06/30 09:18:32;;;;;;;;;1.33;1.33;;;;;20.07;100.00;100833.91;5033533;28;45677;-78
2022/06/30 09:21:14;;;;;;;;;1.67;1.00;;;;;19.98;100.00;100824.41;5044024;28;46403;-79
2022/06/30 09:23:45;;;;;;;;;2.00;2.00;;;;;19.90;100.00;100820.19;5050018;28;45461;-78
2022/06/30 09:26:27;;;;;;;;;2.00;2.00;;;;;19.99;100.00;100837.22;5039653;28;45360;-80
2022/06/30 09:31:50;;;;;;;;;4.33;3.00;;;;;20.05;100.00;100860.38;5037575;28;46750;-78
2022/06/30 09:34:19;;;;;;;;;3.33;3.00;;;;;19.99;100.00;100864.25;5053940;28;45827;-78
2022/06/30 09:36:56;;;;;;;;;2.00;2.00;;;;;19.96;100.00;100856.44;5031572;28;46008;-78
2022/06/30 09:39:43;;;;;;;;;1.00;1.00;;;;;20.08;100.00;100885.72;5046521;28;45923;-80
2022/06/30 09:42:36;;;;;;;;;2.33;1.00;;;;;20.11;100.00;100895.50;5035707;28;45686;-78
2022/06/30 09:45:07;;;;;;;;;2.00;2.00;;;;;20.12;100.00;100894.38;5035558;28;45498;-83
2022/06/30 09:51:25;;;;;;;;;3.00;2.00;;;;;20.14;100.00;100886.59;4932182;28;46064;-79
2022/06/30 09:54:19;;;;;;;;;2.00;1.00;;;;;20.17;100.00;100877.69;4976579;28;46155;-80
2022/06/30 09:57:40;;;;;;;;;1.00;1.00;;;;;20.22;100.00;100886.06;4999498;28;45904;-78
2022/06/30 10:03:25;;;;;;;;;3.33;1.67;;;;;20.03;100.00;100865.34;5044798;28;45910;-81
2022/06/30 10:06:15;;;;;;;;;4.00;3.00;;;;;20.25;100.00;100899.47;5035059;28;47201;-81
2022/06/30 10:08:42;;;;;;;;;1.33;1.33;;;;;20.11;100.00;100867.66;5044185;28;45786;-78
2022/06/30 10:11:52;;;;;;;;;;;;;;;;;;;;;
2022/06/30 10:14:30;;;;;;;;;1.00;1.00;;;;;19.77;100.00;100815.06;5045961;28;73503;-79
2022/06/30 10:17:41;;;;;;;;;4.00;3.00;;;;;19.89;100.00;100840.78;5051239;28;46092;-80
2022/06/30 10:21:14;;;;;;;;;3.00;3.00;;;;;20.26;100.00;100901.13;5040711;28;45517;-80
2022/06/30 10:23:44;;;;;;;;;7.33;5.33;;;;;20.00;100.00;100849.19;4927060;28;45810;-78
2022/06/30 10:27:13;;;;;;;;;2.33;2.33;;;;;20.26;100.00;100914.22;4942285;28;46754;-82
2022/06/30 10:30:25;;;;;;;;;3.33;3.33;;;;;20.22;100.00;100908.34;4965673;28;46213;-81
2022/06/30 10:33:18;;;;;;;;;2.00;2.00;;;;;20.17;100.00;100911.13;4962032;28;45851;-81
2022/06/30 10:36:20;;;;;;;;;3.00;2.00;;;;;19.99;100.00;100906.00;4957192;28;45580;-81
2022/06/30 10:39:28;;;;;;;;;3.00;2.00;;;;;20.08;100.00;100935.84;4977980;28;47107;-81
2022/06/30 10:41:54;;;;;;;;;5.00;2.00;;;;;19.89;100.00;100910.38;4956470;28;45918;-80
2022/06/30 10:44:25;;;;;;;;;3.00;2.33;;;;;19.74;100.00;100896.31;4987302;28;45864;-81
2022/06/30 10:47:50;;;;;;;;;2.33;2.33;;;;;19.91;100.00;100936.00;5061829;28;45443;-77
2022/06/30 10:50:39;;;;;;;;;3.00;2.00;;;;;19.85;100.00;100942.66;5034230;28;45581;-79
2022/06/30 10:54:10;;;;;;;;;4.67;2.00;;;;;19.81;100.00;100938.72;5039741;28;47308;-79
2022/06/30 10:57:29;;;;;;;;;;;;;;;;;;;;;
2022/06/30 11:00:11;;;;;;;;;;;;;;;;;;;;;
2022/06/30 11:02:50;;;;;;;;;;;;;;;;;;;;;
2022/06/30 11:05:28;;;;;;;;;3.00;3.00;;;;;19.85;100.00;100956.56;5039538;28;74324;-85
2022/06/30 11:08:15;;;;;;;;;4.00;2.67;;;;;20.00;100.00;100975.31;5069420;28;45695;-83
2022/06/30 11:10:43;;;;;;;;;4.00;2.33;;;;;20.06;100.00;100973.41;5050130;28;44895;-83
2022/06/30 11:13:38;;;;;;;;;3.33;2.33;;;;;19.77;100.00;100920.81;5056550;28;44900;-85
2022/06/30 11:16:13;;;;;;;;;4.00;4.00;;;;;20.18;100.00;100960.13;5027214;28;45558;-80
2022/06/30 11:18:38;;;;;;;;;4.67;3.00;;;;;20.32;100.00;100959.69;5026775;28;45574;-79
2022/06/30 11:21:04;;;;;;;;;2.33;2.33;;;;;20.39;100.00;100951.88;5043656;28;45498;-79
2022/06/30 11:23:52;;;;;;;;;2.00;2.00;;;;;20.51;100.00;100946.09;5043040;28;45699;-79
2022/06/30 11:29:11;;;;;;;;;2.00;2.00;;;;;20.69;100.00;100945.69;5045197;28;45589;-79
2022/06/30 11:31:38;;;;;;;;;2.00;1.00;;;;;20.74;100.00;100937.34;5045553;28;45890;-79
2022/06/30 11:34:15;;;;;;;;;1.00;1.00;;;;;20.85;100.00;100937.38;5035261;28;46184;-79
2022/06/30 11:36:44;;;;;;;;;2.67;2.67;;;;;20.98;100.00;100923.75;5031549;28;46748;-79
2022/06/30 11:39:14;;;;;;;;;23.00;21.33;;;;;21.11;100.00;100918.78;5054078;28;45676;-78
2022/06/30 11:41:56;;;;;;;;;3.67;2.00;;;;;21.20;100.00;100925.50;5037703;28;45164;-78
2022/06/30 11:44:38;;;;;;;;;2.00;2.00;;;;;21.23;100.00;100927.72;5046650;28;45564;-79
2022/06/30 11:47:06;;;;;;;;;2.33;2.33;;;;;20.93;100.00;100895.88;5029426;28;46716;-80
2022/06/30 11:49:51;;;;;;;;;2.00;2.00;;;;;21.17;100.00;100923.25;5035006;28;45791;-79
2022/06/30 11:52:31;;;;;;;;;3.67;2.33;;;;;21.17;100.00;100935.25;5033772;28;45604;-79
2022/06/30 11:54:56;;;;;;;;;4.67;3.00;;;;;21.13;100.00;100930.50;5031827;28;46011;-80
2022/06/30 11:57:44;;;;;;;;;1.67;1.67;;;;;20.98;100.00;100931.28;5051988;28;46282;-88
2022/06/30 12:03:55;;;;;;;;;;;;;;;;;;;;;
2022/06/30 12:06:20;;;;;;;;;4.33;3.00;;;;;21.38;100.00;100901.81;4972706;28;75164;-81
2022/06/30 12:08:49;;;;;;;;;4.33;1.33;;;;;21.54;100.00;100854.38;5025035;28;46239;-82
2022/06/30 12:11:15;;;;;;;;;6.00;1.00;;;;;22.11;100.00;100857.91;5029756;28;46090;-81
2022/06/30 12:13:44;;;;;;;;;1.00;1.00;;;;;22.58;100.00;100848.28;5015069;28;45543;-81
2022/06/30 12:16:17;;;;;;;;;0.67;0.67;;;;;23.04;100.00;100836.81;5030208;28;45497;-81
2022/06/30 12:18:46;;;;;;;;;1.00;0.00;;;;;23.40;100.00;100825.34;5011373;28;46047;-81
2022/06/30 12:21:11;;;;;;;;;1.67;1.67;;;;;23.84;100.00;100848.72;5024470;28;45536;-79
2022/06/30 12:23:38;;;;;;;;;4.67;1.00;;;;;24.17;100.00;100891.00;5009350;28;46384;-80